Time;durP1;ratioP1;P1;durP2;ratioP2;P2;SDS_P1;SDS_P2;PMS_P1;PMS_P2;Temp;Humidity;BMP_temperature;BMP_pressure;BME280_temperature;BME280_humidity;BME280_pressure;Samples;Min_cycle;Max_cycle;Signal;HPM_P1;HPM_P2
2022/03/16 00:00:33;;;;;;;15.60;8.07;;;;;;;8.49;60.14;99967.34;5073839;28;20752;-67
2022/03/16 00:03:02;;;;;;;13.37;7.43;;;;;;;8.39;62.88;99987.56;5073521;28;20044;-67
2022/03/16 00:05:31;;;;;;;10.80;6.18;;;;;;;8.32;63.45;99985.75;5073997;28;20075;-67
2022/03/16 00:08:00;;;;;;;15.30;8.30;;;;;;;8.23;64.01;99985.63;5073155;28;20523;-67
2022/03/16 00:10:29;;;;;;;11.57;5.10;;;;;;;8.26;64.06;99988.19;5073438;28;20055;-67
2022/03/16 00:12:58;;;;;;;12.13;7.32;;;;;;;8.27;64.36;99992.47;5073316;28;20050;-67
2022/03/16 00:15:28;;;;;;;15.13;8.38;;;;;;;8.35;63.30;99998.53;5073676;28;20040;-67
2022/03/16 00:17:57;;;;;;;13.25;7.53;;;;;;;8.30;64.04;100000.16;5073334;28;20044;-67
2022/03/16 00:20:27;;;;;;;16.88;8.43;;;;;;;8.20;65.40;100003.38;5073182;28;20056;-67
2022/03/16 00:22:56;;;;;;;16.98;8.75;;;;;;;7.95;66.30;100002.16;5073304;28;20047;-67
2022/03/16 00:25:26;;;;;;;16.17;8.05;;;;;;;7.88;68.37;100016.47;5073045;28;20059;-67
2022/03/16 00:27:55;;;;;;;14.02;7.75;;;;;;;7.95;69.05;100013.19;5073191;28;20040;-67
2022/03/16 00:30:23;;;;;;;14.70;9.02;;;;;;;7.91;69.12;100021.59;5073913;28;20083;-67
2022/03/16 00:32:55;;;;;;;17.95;8.93;;;;;;;7.85;70.23;100021.47;5073701;28;20106;-67
2022/03/16 00:35:25;;;;;;;15.13;7.45;;;;;;;7.92;68.60;100028.38;5072012;28;20052;-67
2022/03/16 00:37:54;;;;;;;15.43;8.40;;;;;;;7.89;68.80;100028.31;5073392;28;20048;-67
2022/03/16 00:40:23;;;;;;;12.50;6.90;;;;;;;7.80;69.02;100035.81;5073109;28;20106;-67
2022/03/16 00:42:52;;;;;;;11.57;7.38;;;;;;;7.74;69.60;100048.41;5073039;28;20044;-67
2022/03/16 00:45:21;;;;;;;15.90;7.68;;;;;;;7.84;68.91;100029.97;5073030;28;20044;-67
2022/03/16 00:47:50;;;;;;;17.75;7.82;;;;;;;7.80;66.26;100028.19;5073272;28;20507;-67
2022/03/16 00:50:21;;;;;;;10.38;6.20;;;;;;;7.78;66.63;100029.84;5073270;28;20103;-67
2022/03/16 00:52:50;;;;;;;13.77;7.50;;;;;;;7.68;68.23;100024.59;5073074;28;20052;-67
2022/03/16 00:55:19;;;;;;;14.70;8.47;;;;;;;7.63;69.79;100024.50;5073089;28;20044;-67
2022/03/16 00:57:48;;;;;;;17.02;8.35;;;;;;;7.56;69.66;100021.88;5073251;28;20045;-67
2022/03/16 01:00:17;;;;;;;15.47;8.63;;;;;;;7.34;71.50;100011.31;5071727;28;20037;-67
2022/03/16 01:02:46;;;;;;;16.67;8.27;;;;;;;7.17;72.55;100011.88;5072867;28;20049;-67
2022/03/16 01:05:16;;;;;;;18.73;8.55;;;;;;;7.12;74.04;100010.94;5072906;28;20049;-67
2022/03/16 01:07:53;;;;;;;16.08;8.63;;;;;;;7.00;73.87;100013.25;5072951;28;20127;-67
2022/03/16 01:10:23;;;;;;;16.40;9.52;;;;;;;6.94;74.93;100013.97;5075434;28;20072;-67
2022/03/16 01:12:53;;;;;;;15.67;8.03;;;;;;;6.84;75.75;100013.78;5076772;28;20044;-67
2022/03/16 01:15:23;;;;;;;16.15;7.72;;;;;;;6.83;76.09;100004.44;5076442;28;20056;-67
2022/03/16 01:17:52;;;;;;;15.25;8.30;;;;;;;6.83;76.24;100000.22;5076721;28;20140;-67
2022/03/16 01:20:22;;;;;;;13.60;7.97;;;;;;;6.78;76.85;99985.75;5076102;28;20072;-67
2022/03/16 01:22:51;;;;;;;20.52;9.52;;;;;;;6.61;76.97;99978.69;5076556;28;20127;-66
2022/03/16 01:25:21;;;;;;;13.97;7.97;;;;;;;6.51;78.12;99971.69;5074809;28;20048;-67
2022/03/16 01:27:51;;;;;;;18.50;9.05;;;;;;;6.56;78.20;99959.97;5076517;28;20072;-66
2022/03/16 01:30:20;;;;;;;17.35;9.23;;;;;;;6.35;78.51;99954.47;5076489;28;20492;-66
2022/03/16 01:32:49;;;;;;;11.23;6.13;;;;;;;6.33;79.45;99935.84;5074899;28;20048;-66
2022/03/16 01:35:19;;;;;;;;;;;;;;;6.46;79.07;99925.13;5075308;28;20285;-66
2022/03/16 01:37:48;;;;;;;18.42;7.95;;;;;;;6.62;78.63;99914.44;5076017;28;19930;-66
2022/03/16 01:40:17;;;;;;;11.20;6.20;;;;;;;6.58;77.90;99912.69;5076039;28;20039;-66
2022/03/16 01:42:48;;;;;;;17.17;8.27;;;;;;;6.55;78.23;99899.94;5075887;28;20492;-66
2022/03/16 01:45:17;;;;;;;15.02;7.72;;;;;;;6.56;78.50;99888.97;5076246;28;20036;-66
2022/03/16 01:47:46;;;;;;;17.65;8.23;;;;;;;6.57;78.89;99875.50;5075750;28;20037;-66
2022/03/16 01:50:16;;;;;;;16.42;8.57;;;;;;;6.55;78.78;99872.03;5076125;28;20056;-66
2022/03/16 01:52:45;;;;;;;17.17;9.82;;;;;;;6.56;79.33;99857.69;5075954;28;20463;-66
2022/03/16 01:55:14;;;;;;;16.80;7.97;;;;;;;6.46;79.33;99866.81;5075745;28;20055;-66
2022/03/16 01:57:49;;;;;;;16.55;8.70;;;;;;;6.41;80.02;99853.19;5074803;28;20072;-66
2022/03/16 02:00:18;;;;;;;17.98;9.50;;;;;;;6.32;80.09;99860.63;5074492;28;20047;-66
2022/03/16 02:02:47;;;;;;;16.25;8.75;;;;;;;6.38;80.31;99863.28;5074334;28;20043;-66
2022/03/16 02:05:16;;;;;;;16.98;10.27;;;;;;;6.46;80.79;99851.59;5074864;28;20425;-66
2022/03/16 02:07:45;;;;;;;17.58;9.00;;;;;;;6.50;80.75;99848.28;5075410;28;20040;-66
2022/03/16 02:10:16;;;;;;;14.20;7.77;;;;;;;6.55;80.81;99848.41;5075527;28;20102;-66
2022/03/16 02:12:49;;;;;;;17.95;10.27;;;;;;;6.52;80.88;99836.53;5075334;28;20372;-66
2022/03/16 02:15:19;;;;;;;20.52;10.13;;;;;;;6.50;81.26;99833.06;5075412;28;20072;-66
2022/03/16 02:17:50;;;;;;;17.63;9.88;;;;;;;6.57;81.56;99822.25;5075292;28;20514;-66
2022/03/16 02:20:19;;;;;;;19.33;10.75;;;;;;;6.56;81.60;99817.97;5075223;28;20583;-66
2022/03/16 02:22:53;;;;;;;21.07;10.47;;;;;;;6.50;81.89;99817.88;5075153;28;20052;-66
2022/03/16 02:25:22;;;;;;;19.25;9.98;;;;;;;6.57;82.12;99834.91;5074888;28;20064;-66
2022/03/16 02:27:52;;;;;;;21.20;10.00;;;;;;;6.63;81.91;99835.00;5075343;28;20052;-66
2022/03/16 02:30:21;;;;;;;;;;;;;;;6.65;81.91;99830.81;5075479;28;20295;-66
2022/03/16 02:32:50;;;;;;;17.95;9.38;;;;;;;6.68;81.91;99833.41;5074945;28;19920;-66
2022/03/16 02:35:19;;;;;;;18.83;9.93;;;;;;;6.73;81.65;99841.97;5074941;28;20037;-66
2022/03/16 02:37:48;;;;;;;18.77;9.80;;;;;;;6.63;81.32;99829.94;5074850;28;20044;-66
2022/03/16 02:40:21;;;;;;;21.10;10.03;;;;;;;6.69;81.55;99824.97;5075118;28;20154;-66
2022/03/16 02:42:51;;;;;;;18.00;9.60;;;;;;;6.67;81.52;99815.66;5074797;28;20320;-67
2022/03/16 02:45:20;;;;;;;16.10;9.13;;;;;;;6.61;81.40;99816.38;5074773;28;20049;-66
2022/03/16 02:47:49;;;;;;;20.30;11.47;;;;;;;6.59;81.47;99828.19;5074941;28;20037;-66
2022/03/16 02:50:19;;;;;;;22.42;10.85;;;;;;;6.55;81.19;99831.47;5074677;28;20072;-66
2022/03/16 02:52:49;;;;;;;19.33;10.20;;;;;;;6.49;81.40;99822.91;5074619;28;20051;-66
2022/03/16 02:55:39;;;;;;;16.52;10.10;;;;;;;6.39;81.59;99826.97;5074592;28;20072;-66
2022/03/16 02:58:09;;;;;;;18.85;9.85;;;;;;;6.42;82.15;99832.09;5074820;28;20044;-66
2022/03/16 03:00:38;;;;;;;20.00;11.18;;;;;;;6.50;81.92;99822.94;5074504;28;20180;-66
2022/03/16 03:03:08;;;;;;;19.08;10.60;;;;;;;6.49;81.94;99826.31;5074402;28;20068;-66
2022/03/16 03:05:37;;;;;;;19.67;10.43;;;;;;;6.41;82.20;99802.50;5074280;28;20040;-67
2022/03/16 03:08:06;;;;;;;19.75;10.38;;;;;;;6.49;81.98;99831.38;5074824;28;20432;-66
2022/03/16 03:10:35;;;;;;;20.10;11.47;;;;;;;6.53;82.47;99837.34;5074517;28;20506;-66
2022/03/16 03:13:06;;;;;;;19.73;10.25;;;;;;;6.48;82.05;99832.19;5074238;28;20048;-66
2022/03/16 03:15:35;;;;;;;19.98;10.63;;;;;;;6.38;82.04;99817.66;5074116;28;20045;-66
2022/03/16 03:18:04;;;;;;;21.00;10.37;;;;;;;6.48;82.63;99818.66;5074091;28;20049;-66
2022/03/16 03:20:33;;;;;;;16.63;10.17;;;;;;;6.46;82.19;99836.41;5074076;28;20037;-66
2022/03/16 03:23:02;;;;;;;15.90;8.33;;;;;;;6.38;82.30;99845.53;5074016;28;20492;-66
2022/03/16 03:25:31;;;;;;;19.48;10.43;;;;;;;6.36;82.59;99834.50;5072500;28;20290;-66
2022/03/16 03:27:59;;;;;;;19.92;11.93;;;;;;;6.33;82.74;99829.41;5073876;28;20118;-66
2022/03/16 03:30:31;;;;;;;21.00;11.15;;;;;;;6.15;83.07;99816.38;5073989;28;20060;-66
2022/03/16 03:33:00;;;;;;;20.02;10.43;;;;;;;6.05;83.04;99806.88;5073766;28;20052;-66
2022/03/16 03:35:29;;;;;;;14.60;9.30;;;;;;;6.16;83.61;99837.50;5074035;28;20048;-66
2022/03/16 03:37:58;;;;;;;15.23;7.68;;;;;;;6.22;83.23;99830.88;5073798;28;20071;-66
2022/03/16 03:40:27;;;;;;;19.27;10.18;;;;;;;6.20;83.39;99821.53;5074083;28;20041;-66
2022/03/16 03:42:56;;;;;;;15.68;7.45;;;;;;;6.03;83.70;99816.16;5073678;28;20039;-66
2022/03/16 03:45:25;;;;;;;21.10;10.80;;;;;;;6.18;83.76;99818.97;5073780;28;20097;-66
2022/03/16 03:47:55;;;;;;;21.80;10.13;;;;;;;6.23;83.74;99807.25;5073559;28;20041;-67
2022/03/16 03:50:24;;;;;;;21.95;10.43;;;;;;;6.26;83.78;99811.53;5073637;28;20048;-66
2022/03/16 03:52:53;;;;;;;18.90;9.95;;;;;;;6.20;83.88;99807.19;5073610;28;20503;-66
2022/03/16 03:55:23;;;;;;;19.27;11.30;;;;;;;6.05;84.15;99801.81;5073630;28;20123;-66
2022/03/16 03:57:53;;;;;;;18.48;10.60;;;;;;;5.94;84.23;99788.97;5073532;28;20492;-66
2022/03/16 04:00:22;;;;;;;21.08;11.48;;;;;;;6.09;84.49;99796.00;5073516;28;20051;-66
2022/03/16 04:02:51;;;;;;;20.60;11.63;;;;;;;6.20;84.18;99797.06;5073489;28;20071;-66
2022/03/16 04:05:22;;;;;;;20.23;9.50;;;;;;;6.16;84.29;99800.38;5073625;28;20180;-66
2022/03/16 04:07:51;;;;;;;22.70;11.07;;;;;;;6.08;84.55;99797.69;5073393;28;20048;-66
2022/03/16 04:10:20;;;;;;;17.15;8.30;;;;;;;6.14;84.67;99796.94;5073434;28;20044;-66
2022/03/16 04:12:49;;;;;;;17.00;8.77;;;;;;;6.19;84.99;99805.47;5073758;28;20033;-66
2022/03/16 04:15:20;;;;;;;20.67;10.85;;;;;;;6.14;84.91;99812.16;5073507;28;20415;-66
2022/03/16 04:17:49;;;;;;;21.77;11.27;;;;;;;6.18;85.19;99807.97;5073438;28;20041;-66
2022/03/16 04:20:18;;;;;;;24.50;12.80;;;;;;;6.16;85.03;99805.44;5073635;28;20060;-66
2022/03/16 04:22:48;;;;;;;26.67;14.07;;;;;;;6.22;85.23;99810.59;5073593;28;20364;-66
2022/03/16 04:25:17;;;;;;;23.58;13.52;;;;;;;6.23;85.41;99814.84;5073069;28;20057;-66
2022/03/16 04:27:46;;;;;;;23.73;11.33;;;;;;;6.23;84.91;99791.19;5073374;28;20037;-66
2022/03/16 04:30:15;;;;;;;20.33;10.88;;;;;;;6.29;85.26;99812.41;5073102;28;20036;-66
2022/03/16 04:32:44;;;;;;;24.17;12.30;;;;;;;6.37;84.93;99810.88;5073209;28;20056;-66
2022/03/16 04:35:13;;;;;;;22.27;11.33;;;;;;;6.38;84.62;99812.56;5073203;28;20106;-66
2022/03/16 04:37:42;;;;;;;20.85;10.70;;;;;;;6.39;84.70;99801.63;5073012;28;20273;-66
2022/03/16 04:40:13;;;;;;;22.03;11.40;;;;;;;6.34;84.31;99805.75;5073138;28;20040;-66
2022/03/16 04:42:42;;;;;;;23.40;11.45;;;;;;;6.18;84.21;99811.38;5073539;28;20048;-66
2022/03/16 04:45:12;;;;;;;20.70;11.88;;;;;;;6.12;84.70;99802.81;5075588;28;20140;-65
2022/03/16 04:47:41;;;;;;;23.17;11.05;;;;;;;6.10;84.84;99810.38;5076956;28;20047;-67
2022/03/16 04:50:11;;;;;;;14.40;8.88;;;;;;;6.07;84.88;99811.16;5076956;28;20051;-67
2022/03/16 04:52:47;;;;;;;19.63;10.88;;;;;;;6.09;85.24;99808.69;5077225;28;20071;-67
2022/03/16 04:55:18;;;;;;;20.65;11.48;;;;;;;6.14;85.51;99813.81;5077531;28;20083;-67
2022/03/16 04:57:47;;;;;;;21.92;12.25;;;;;;;6.04;85.15;99813.66;5077034;28;20041;-67
2022/03/16 05:00:17;;;;;;;21.45;11.90;;;;;;;6.04;85.37;99815.34;5077049;28;20127;-67
2022/03/16 05:02:47;;;;;;;22.63;12.95;;;;;;;6.11;85.42;99824.75;5076741;28;20500;-67
2022/03/16 05:05:16;;;;;;;16.92;8.98;;;;;;;6.10;85.66;99820.50;5076990;28;20044;-67
2022/03/16 05:07:45;;;;;;;24.88;13.48;;;;;;;6.05;85.69;99824.63;5076870;28;20174;-67
2022/03/16 05:10:14;;;;;;;29.90;15.10;;;;;;;5.99;85.90;99796.66;5076786;28;20127;-66
2022/03/16 05:12:46;;;;;;;29.00;14.50;;;;;;;6.20;86.31;99821.53;5076852;28;20043;-67
2022/03/16 05:15:16;;;;;;;28.75;15.30;;;;;;;6.28;86.04;99832.69;5076452;28;20048;-67
2022/03/16 05:17:45;;;;;;;26.08;14.18;;;;;;;6.32;86.32;99837.81;5076353;28;20488;-67
2022/03/16 05:20:16;;;;;;;27.02;13.90;;;;;;;6.24;85.88;99839.34;5076261;28;20527;-67
2022/03/16 05:22:46;;;;;;;28.38;14.20;;;;;;;6.22;85.77;99848.59;5076342;28;20072;-67
2022/03/16 05:25:18;;;;;;;25.13;12.48;;;;;;;6.17;86.13;99831.63;5076091;28;20522;-66
2022/03/16 05:27:48;;;;;;;22.60;13.70;;;;;;;6.26;86.10;99831.78;5076223;28;20071;-67
2022/03/16 05:30:19;;;;;;;20.85;11.88;;;;;;;6.30;85.88;99843.69;5076098;28;20132;-67
2022/03/16 05:32:51;;;;;;;21.33;12.48;;;;;;;6.19;85.78;99845.19;5076345;28;20400;-67
2022/03/16 05:35:21;;;;;;;22.63;11.63;;;;;;;6.19;85.76;99846.00;5076057;28;20052;-66
2022/03/16 05:37:50;;;;;;;19.23;11.95;;;;;;;6.25;85.79;99841.06;5076010;28;20037;-67
2022/03/16 05:40:19;;;;;;;23.23;11.57;;;;;;;6.34;86.01;99836.16;5075801;28;20048;-66
2022/03/16 05:42:49;;;;;;;26.88;12.73;;;;;;;6.42;85.82;99847.31;5075788;28;20499;-67
2022/03/16 05:45:23;;;;;;;21.33;12.02;;;;;;;6.38;86.16;99837.09;5075800;28;20045;-67
2022/03/16 05:47:52;;;;;;;23.58;12.23;;;;;;;6.47;85.62;99850.78;5075712;28;20516;-67
2022/03/16 05:50:21;;;;;;;19.23;10.90;;;;;;;6.32;85.75;99852.16;5075656;28;20047;-67
2022/03/16 05:52:50;;;;;;;21.67;11.40;;;;;;;6.25;85.49;99856.28;5075849;28;20036;-66
2022/03/16 05:55:19;;;;;;;23.73;11.80;;;;;;;6.18;85.65;99854.44;5076046;28;20756;-66
2022/03/16 05:57:50;;;;;;;21.93;11.87;;;;;;;6.26;85.98;99867.28;5075666;28;20136;-66
2022/03/16 06:00:20;;;;;;;22.77;12.85;;;;;;;6.32;85.75;99868.25;5075896;28;20488;-66
2022/03/16 06:02:50;;;;;;;20.80;11.95;;;;;;;6.36;85.97;99875.06;5075586;28;20041;-67
2022/03/16 06:05:24;;;;;;;19.95;11.95;;;;;;;6.38;85.76;99878.47;5075627;28;20044;-67
2022/03/16 06:07:54;;;;;;;20.27;11.77;;;;;;;6.46;85.61;99889.63;5075480;28;20079;-67
2022/03/16 06:10:23;;;;;;;21.67;11.23;;;;;;;6.47;85.66;99883.75;5075490;28;20293;-67
2022/03/16 06:12:55;;;;;;;20.70;11.47;;;;;;;6.41;85.37;99878.53;5075637;28;20090;-67
2022/03/16 06:15:25;;;;;;;19.60;10.82;;;;;;;6.44;85.49;99893.81;5075502;28;20078;-67
2022/03/16 06:17:57;;;;;;;21.55;12.85;;;;;;;6.43;85.46;99897.16;5075244;28;20044;-66
2022/03/16 06:20:28;;;;;;;20.98;11.98;;;;;;;6.41;85.28;99903.88;5075264;28;20064;-66
2022/03/16 06:22:57;;;;;;;20.52;11.57;;;;;;;6.46;85.31;99907.38;5075074;28;20055;-66
2022/03/16 06:25:26;;;;;;;20.13;12.37;;;;;;;6.46;85.18;99907.38;5074921;28;20071;-67
2022/03/16 06:27:56;;;;;;;23.20;12.05;;;;;;;6.41;85.01;99908.97;5075123;28;20040;-67
2022/03/16 06:30:25;;;;;;;20.42;12.48;;;;;;;6.44;85.07;99919.16;5075062;28;20036;-67
2022/03/16 06:32:54;;;;;;;19.03;11.17;;;;;;;6.37;85.22;99912.28;5075309;28;20045;-67
2022/03/16 06:35:23;;;;;;;24.40;12.27;;;;;;;6.35;84.98;99913.94;5074939;28;20048;-67
2022/03/16 06:37:53;;;;;;;21.67;12.18;;;;;;;6.35;85.10;99913.94;5074828;28;20049;-67
2022/03/16 06:40:22;;;;;;;18.90;10.73;;;;;;;6.33;85.08;99915.59;5074816;28;20124;-67
2022/03/16 06:42:53;;;;;;;15.63;8.50;;;;;;;6.29;85.00;99921.38;5075121;28;20051;-67
2022/03/16 06:45:25;;;;;;;25.30;11.82;;;;;;;6.30;85.17;99925.66;5074971;28;20094;-67
2022/03/16 06:47:56;;;;;;;19.15;11.68;;;;;;;6.36;85.14;99920.69;5075012;28;20476;-67
2022/03/16 06:50:26;;;;;;;20.95;11.85;;;;;;;6.34;85.23;99921.47;5074855;28;20091;-67
2022/03/16 06:52:56;;;;;;;19.38;11.57;;;;;;;6.32;85.35;99918.94;5074883;28;20044;-67
2022/03/16 06:55:26;;;;;;;19.83;12.18;;;;;;;6.30;85.06;99930.72;5074718;28;20090;-67
2022/03/16 06:57:56;;;;;;;22.58;12.02;;;;;;;6.29;85.51;99923.94;5074593;28;20097;-67
2022/03/16 07:00:26;;;;;;;14.65;8.57;;;;;;;6.31;85.50;99929.88;5074263;28;20040;-67
2022/03/16 07:02:58;;;;;;;19.13;10.93;;;;;;;6.17;85.41;99938.88;5074720;28;20101;-67
2022/03/16 07:05:29;;;;;;;21.40;11.60;;;;;;;6.21;85.70;99934.75;5074428;28;20048;-67
2022/03/16 07:07:59;;;;;;;20.58;11.77;;;;;;;6.24;85.78;99945.78;5073503;28;20053;-67
2022/03/16 07:10:29;;;;;;;22.73;11.90;;;;;;;6.18;85.38;99945.69;5074234;28;20078;-67
2022/03/16 07:12:58;;;;;;;19.67;11.40;;;;;;;6.20;85.68;99948.22;5074104;28;20047;-67
2022/03/16 07:15:30;;;;;;;20.73;11.13;;;;;;;6.13;85.95;99957.38;5074231;28;20098;-67
2022/03/16 07:18:01;;;;;;;20.40;11.80;;;;;;;6.11;86.03;99948.91;5074082;28;20056;-67
2022/03/16 07:20:29;;;;;;;19.77;11.80;;;;;;;6.11;86.17;99953.97;5074151;28;20492;-67
2022/03/16 07:23:05;;;;;;;19.08;11.18;;;;;;;6.15;86.21;99955.75;5074050;28;20553;-67
2022/03/16 07:25:38;;;;;;;14.13;8.60;;;;;;;6.17;86.38;99964.22;5073868;28;20060;-67
2022/03/16 07:28:08;;;;;;;20.73;11.13;;;;;;;6.11;86.35;99961.56;5074504;28;20323;-67
2022/03/16 07:30:40;;;;;;;19.02;10.30;;;;;;;6.03;86.41;99966.47;5073747;28;20048;-67
2022/03/16 07:33:10;;;;;;;19.58;10.88;;;;;;;6.00;86.56;99968.06;5073910;28;20048;-67
2022/03/16 07:35:38;;;;;;;;;;;;;;;5.89;86.68;99969.50;5074383;28;20051;-67
2022/03/16 07:38:08;;;;;;;17.70;9.90;;;;;;;5.83;87.02;99977.78;5073736;28;19978;-67
2022/03/16 07:40:38;;;;;;;15.95;9.30;;;;;;;5.79;86.85;99975.16;5074013;28;20135;-67
2022/03/16 07:43:07;;;;;;;;;;;;;;;5.86;87.08;99980.44;5074402;28;20044;-67
2022/03/16 07:45:38;;;;;;;14.38;8.15;;;;;;;5.86;87.20;99982.97;5073956;28;20016;-67
2022/03/16 07:48:07;;;;;;;18.90;9.20;;;;;;;5.94;87.37;99988.22;5073865;28;20240;-67
2022/03/16 07:50:36;;;;;;;17.15;9.40;;;;;;;5.91;87.35;99995.72;5073822;28;20480;-67
2022/03/16 07:53:06;;;;;;;16.60;8.90;;;;;;;5.95;87.15;100000.06;5073534;28;20044;-67
2022/03/16 07:55:35;;;;;;;18.75;9.55;;;;;;;6.03;87.21;100001.06;5071933;28;20075;-67
2022/03/16 07:58:04;;;;;;;15.87;8.60;;;;;;;5.99;86.96;100014.50;5073470;28;20039;-67
2022/03/16 08:00:34;;;;;;;14.80;8.77;;;;;;;5.97;87.04;100006.00;5073374;28;20052;-67
2022/03/16 08:03:04;;;;;;;17.10;8.20;;;;;;;5.97;86.92;100019.50;5073532;28;20043;-67
2022/03/16 08:05:34;;;;;;;14.07;8.88;;;;;;;5.95;86.99;100022.88;5058100;28;20049;-67
2022/03/16 08:08:03;;;;;;;;;;;;;;;5.97;87.08;100026.28;5074436;28;20064;-67
2022/03/16 08:10:32;;;;;;;15.35;8.63;;;;;;;6.01;87.16;100026.38;5073125;28;20414;-67
2022/03/16 08:13:01;;;;;;;16.23;8.97;;;;;;;6.03;87.30;100028.94;5073466;28;20033;-67
2022/03/16 08:15:30;;;;;;;15.65;9.20;;;;;;;5.95;87.45;100018.63;5073398;28;20484;-66
2022/03/16 08:17:59;;;;;;;12.43;6.63;;;;;;;6.09;87.26;100034.16;5074446;28;20072;-66
2022/03/16 08:20:29;;;;;;;14.73;8.73;;;;;;;6.00;86.85;100041.53;5079962;28;20044;-66
2022/03/16 08:22:58;;;;;;;15.77;8.40;;;;;;;5.99;87.01;100044.91;5079999;28;20055;-67
2022/03/16 08:25:48;;;;;;;14.82;8.23;;;;;;;5.99;86.76;100052.50;5079761;28;20139;-66
2022/03/16 08:28:17;;;;;;;15.38;8.80;;;;;;;5.98;87.22;100053.31;5079743;28;20049;-66
2022/03/16 08:30:46;;;;;;;16.05;9.00;;;;;;;6.04;86.99;100059.41;5080036;28;20044;-66
2022/03/16 08:33:15;;;;;;;15.07;7.97;;;;;;;6.04;86.92;100056.88;5080113;28;20411;-67
2022/03/16 08:35:45;;;;;;;9.60;5.10;;;;;;;6.01;86.48;100071.13;5072974;28;20054;-67
2022/03/16 08:38:14;;;;;;;13.93;7.30;;;;;;;5.98;86.28;100074.44;5059851;28;20069;-66
2022/03/16 08:40:44;;;;;;;11.07;6.72;;;;;;;6.00;86.83;100071.94;5060026;28;20048;-66
2022/03/16 08:43:13;;;;;;;15.68;8.38;;;;;;;5.99;86.91;100077.84;5060120;28;20392;-66
2022/03/16 08:45:42;;;;;;;13.57;8.27;;;;;;;5.98;86.43;100081.19;5078087;28;20037;-67
2022/03/16 08:48:11;;;;;;;12.80;7.25;;;;;;;5.95;86.27;100094.63;5072976;28;20040;-67
2022/03/16 08:50:40;;;;;;;12.83;7.27;;;;;;;5.99;86.48;100095.56;5077953;28;20036;-67
2022/03/16 08:53:11;;;;;;;12.32;6.88;;;;;;;5.98;86.01;100094.69;5076665;28;20068;-66
2022/03/16 08:55:40;;;;;;;10.80;6.82;;;;;;;5.94;86.59;100098.00;5076969;28;20037;-67
2022/03/16 08:58:09;;;;;;;16.23;7.00;;;;;;;5.90;86.68;100101.25;5077946;28;20068;-66
2022/03/16 09:00:38;;;;;;;10.40;6.22;;;;;;;5.91;86.71;100107.19;5076763;28;20120;-67
2022/03/16 09:03:08;;;;;;;9.65;6.88;;;;;;;5.89;87.17;100106.28;5078943;28;20090;-66
2022/03/16 09:05:38;;;;;;;11.95;7.60;;;;;;;5.91;86.66;100107.19;5077322;28;20467;-66
2022/03/16 09:08:06;;;;;;;12.45;7.95;;;;;;;5.96;86.55;100110.69;5077636;28;20384;-67
2022/03/16 09:10:38;;;;;;;13.20;7.93;;;;;;;5.94;86.72;100113.19;5078066;28;20074;-66
2022/03/16 09:13:07;;;;;;;12.07;7.30;;;;;;;5.85;86.68;100101.97;5079062;28;20101;-66
2022/03/16 09:15:40;;;;;;;10.98;7.38;;;;;;;6.00;86.55;100112.47;5078812;28;20101;-67
2022/03/16 09:18:10;;;;;;;12.23;7.63;;;;;;;6.08;86.27;100108.44;5079513;28;20384;-66
2022/03/16 09:20:39;;;;;;;12.93;7.75;;;;;;;6.03;86.43;100117.59;5078910;28;20097;-66
2022/03/16 09:23:10;;;;;;;12.35;8.15;;;;;;;6.10;86.44;100114.41;5076435;28;20539;-66
2022/03/16 09:25:41;;;;;;;13.30;7.60;;;;;;;6.14;86.31;100111.16;5078980;28;20143;-66
2022/03/16 09:28:11;;;;;;;11.15;7.30;;;;;;;6.23;86.13;100113.88;5079262;28;20055;-66
2022/03/16 09:30:39;;;;;;;14.30;7.75;;;;;;;6.22;86.20;100118.91;5074415;28;20592;-67
2022/03/16 09:33:09;;;;;;;11.93;7.90;;;;;;;6.31;86.37;100119.97;5074186;28;20058;-66
2022/03/16 09:35:38;;;;;;;11.95;7.13;;;;;;;6.29;86.31;100125.81;5065133;28;20045;-66
2022/03/16 09:38:07;;;;;;;13.05;7.60;;;;;;;6.31;85.83;100130.09;5069464;28;20028;-66
2022/03/16 09:40:37;;;;;;;11.48;7.05;;;;;;;6.36;86.07;100122.63;5075904;28;20115;-66
2022/03/16 09:43:09;;;;;;;11.90;7.25;;;;;;;6.43;86.07;100132.94;5075974;28;20044;-66
2022/03/16 09:45:56;;;;;;;13.82;7.75;;;;;;;6.36;86.07;100133.63;5076198;28;20071;-66
2022/03/16 09:48:26;;;;;;;11.95;7.63;;;;;;;6.43;85.96;100134.63;5075322;28;20044;-66
2022/03/16 09:50:56;;;;;;;13.48;8.05;;;;;;;6.49;85.66;100135.63;5075815;28;20041;-66
2022/03/16 09:53:26;;;;;;;14.40;9.02;;;;;;;6.56;85.59;100137.47;5076094;28;20052;-66
2022/03/16 09:55:56;;;;;;;17.27;11.13;;;;;;;6.52;85.83;100138.22;5075761;28;20064;-66
2022/03/16 09:58:26;;;;;;;22.10;13.35;;;;;;;6.53;85.61;100142.47;5075942;28;20079;-66
2022/03/16 10:00:55;;;;;;;19.00;12.23;;;;;;;6.57;85.32;100144.25;5073601;28;20045;-66
2022/03/16 10:03:28;;;;;;;18.13;10.52;;;;;;;6.60;85.32;100148.53;5075473;28;20048;-66
2022/03/16 10:05:58;;;;;;;18.20;9.93;;;;;;;6.77;85.74;100156.53;5075535;28;20072;-66
2022/03/16 10:08:28;;;;;;;;;;;;;;;7.04;85.06;100139.34;5076226;28;20067;-66
2022/03/16 10:13:49;;;;;;;16.48;10.38;;;;;;;7.54;83.95;100151.34;5075462;28;20153;-66
2022/03/16 10:16:18;;;;;;;16.80;10.88;;;;;;;7.42;84.08;100166.34;5075433;28;20511;-65
2022/03/16 10:18:55;;;;;;;17.83;10.52;;;;;;;7.45;83.98;100166.41;5074164;28;20060;-66
2022/03/16 10:21:27;;;;;;;19.95;10.60;;;;;;;7.42;84.34;100173.97;5073308;28;20082;-66
2022/03/16 10:24:03;;;;;;;17.38;10.80;;;;;;;7.28;83.92;100167.75;5074468;28;20033;-66
2022/03/16 10:26:33;;;;;;;16.08;10.02;;;;;;;7.40;84.47;100179.03;5063521;28;20488;-67
2022/03/16 10:29:05;;;;;;;14.60;9.10;;;;;;;7.43;84.11;100184.19;5074531;28;20107;-66
2022/03/16 10:31:35;;;;;;;15.23;8.80;;;;;;;7.37;84.49;100184.03;5074299;28;20064;-66
2022/03/16 10:34:06;;;;;;;14.65;9.02;;;;;;;7.36;83.95;100184.00;5073399;28;20049;-66
2022/03/16 10:36:41;;;;;;;17.33;9.98;;;;;;;7.33;84.56;100179.72;5063503;28;20036;-66
2022/03/16 10:39:10;;;;;;;15.85;9.88;;;;;;;7.31;84.63;100189.00;5074914;28;20426;-66
2022/03/16 10:47:00;;;;;;;15.93;9.40;;;;;;;7.26;84.77;100205.81;5075022;28;20079;-66
2022/03/16 10:49:30;;;;;;;15.65;9.38;;;;;;;7.23;84.95;100205.75;5075185;28;20040;-65
2022/03/16 10:52:05;;;;;;;17.25;9.80;;;;;;;7.29;84.89;100215.19;5074628;28;20076;-66
2022/03/16 10:54:36;;;;;;;13.80;9.27;;;;;;;7.37;85.15;100218.72;5073381;28;20079;-66
2022/03/16 10:57:08;;;;;;;14.32;8.32;;;;;;;7.52;84.52;100213.97;5074489;28;20094;-66
2022/03/16 10:59:39;;;;;;;15.25;8.98;;;;;;;7.63;84.62;100201.47;5074316;28;20087;-66
2022/03/16 11:02:12;;;;;;;15.60;9.68;;;;;;;7.96;84.28;100208.06;5074304;28;20072;-66
2022/03/16 11:04:43;;;;;;;15.30;9.98;;;;;;;8.49;83.85;100200.50;5074395;28;20049;-66
2022/03/16 11:07:12;;;;;;;16.20;10.13;;;;;;;9.38;83.03;100205.16;5074584;28;20051;-66
2022/03/16 11:09:42;;;;;;;18.73;10.73;;;;;;;9.64;80.87;100217.38;5074284;28;20043;-66
2022/03/16 11:14:54;;;;;;;12.82;6.90;;;;;;;10.37;78.69;100219.84;5074234;28;20122;-66
2022/03/16 11:17:23;;;;;;;15.55;9.98;;;;;;;10.59;77.71;100215.78;5072944;28;20045;-66
2022/03/16 11:19:53;;;;;;;16.88;10.27;;;;;;;11.00;76.33;100208.41;5074007;28;20048;-66
2022/03/16 11:22:25;;;;;;;14.70;9.90;;;;;;;10.66;75.51;100215.84;5074033;28;20044;-66
2022/03/16 11:25:02;;;;;;;15.02;9.68;;;;;;;10.14;76.15;100218.78;5073894;28;20080;-66
2022/03/16 11:27:42;;;;;;;14.98;9.30;;;;;;;9.73;76.08;100222.56;5074304;28;20048;-66
2022/03/16 11:30:18;;;;;;;;;;;;;;;9.47;76.34;100221.41;5074269;28;20045;-66
2022/03/16 11:32:47;;;;;;;14.07;7.85;;;;;;;9.25;75.89;100231.31;5073910;28;20015;-66
2022/03/16 11:35:18;;;;;;;13.83;7.80;;;;;;;9.26;75.83;100227.09;5074008;28;20046;-66
2022/03/16 11:37:49;;;;;;;14.27;8.02;;;;;;;9.13;75.75;100223.53;5073678;28;20276;-65
2022/03/16 11:40:20;;;;;;;12.88;8.52;;;;;;;9.03;74.84;100216.59;5073776;28;20511;-65
2022/03/16 11:43:15;;;;;;;20.50;8.55;;;;;;;9.16;74.53;100226.13;5071860;28;20041;-66
2022/03/16 11:45:48;;;;;;;13.07;7.80;;;;;;;9.11;74.13;100220.09;5065631;28;20040;-67
2022/03/16 11:48:40;;;;;;;12.38;7.53;;;;;;;9.07;73.04;100220.88;5062278;28;20107;-68
2022/03/16 11:51:23;;;;;;;12.50;8.05;;;;;;;9.11;72.28;100225.19;5071918;28;20063;-66
2022/03/16 11:54:06;;;;;;;12.63;7.70;;;;;;;9.14;72.99;100224.38;5071213;28;20404;-66